createdAt,value
2023-02-21T00:00:52.226Z,78.24
2023-02-21T00:03:27.156Z,78.33
2023-02-21T00:05:58.586Z,77.97
2023-02-21T00:08:30.090Z,78.62
2023-02-21T00:11:01.119Z,78.46
2023-02-21T00:13:32.584Z,78.44
2023-02-21T00:16:04.339Z,79.04
2023-02-21T00:18:35.804Z,79.19
2023-02-21T00:21:06.732Z,79.26
2023-02-21T00:23:38.031Z,79.90
2023-02-21T00:26:11.609Z,79.76
2023-02-21T00:28:42.819Z,80.29
2023-02-21T00:31:14.131Z,80.35
2023-02-21T00:33:45.307Z,80.23
2023-02-21T00:36:16.204Z,81.04
2023-02-21T00:38:47.496Z,80.75
2023-02-21T00:41:18.568Z,81.30
2023-02-21T00:43:51.636Z,81.14
2023-02-21T00:46:23.344Z,81.44
2023-02-21T00:48:54.657Z,81.13
2023-02-21T00:51:25.849Z,81.71
2023-02-21T00:53:57.282Z,81.60
2023-02-21T00:56:28.705Z,81.79
2023-02-21T00:59:00.106Z,82.28
2023-02-21T01:01:31.347Z,82.49
2023-02-21T01:04:02.885Z,82.63
2023-02-21T01:06:34.040Z,83.16
2023-02-21T01:09:05.938Z,83.74
2023-02-21T01:11:39.424Z,84.03
2023-02-21T01:14:10.732Z,84.12
2023-02-21T01:16:41.639Z,84.57
2023-02-21T01:19:12.845Z,84.95
2023-02-21T01:21:43.770Z,85.62
2023-02-21T01:24:15.001Z,85.50
2023-02-21T01:26:46.087Z,85.88
2023-02-21T01:29:17.450Z,86.29
2023-02-21T01:31:48.400Z,86.38
2023-02-21T01:34:19.616Z,86.89
2023-02-21T01:36:50.703Z,87.26
2023-02-21T01:39:22.145Z,87.83
2023-02-21T01:41:53.156Z,87.63
2023-02-21T01:44:46.018Z,88.22
2023-02-21T01:47:17.106Z,88.32
2023-02-21T01:49:48.928Z,88.78
2023-02-21T01:52:22.405Z,89.36
2023-02-21T01:54:59.143Z,89.75
2023-02-21T01:57:31.501Z,89.77
2023-02-21T02:00:03.372Z,90.82
2023-02-21T02:02:45.500Z,90.68
2023-02-21T02:05:18.379Z,91.17
2023-02-21T02:07:49.857Z,91.55
2023-02-21T02:10:20.869Z,92.36
2023-02-21T02:13:00.228Z,92.53
2023-02-21T02:15:43.567Z,92.69
2023-02-21T02:18:18.375Z,93.08
2023-02-21T02:20:39.675Z,93.31
2023-02-21T02:23:21.506Z,93.15
2023-02-21T02:25:55.863Z,93.25
2023-02-21T02:28:41.554Z,93.94
2023-02-21T02:31:29.752Z,93.81
2023-02-21T02:34:12.062Z,93.61
2023-02-21T02:36:34.275Z,93.88
2023-02-21T02:39:12.086Z,93.95
2023-02-21T02:41:44.222Z,94.22
2023-02-21T02:44:09.571Z,94.19
2023-02-21T02:46:27.118Z,94.38
2023-02-21T02:49:17.340Z,94.41
2023-02-21T02:51:32.665Z,94.37
2023-02-21T02:53:45.251Z,94.30
2023-02-21T02:56:03.478Z,94.55
2023-02-21T02:58:18.384Z,94.82
2023-02-21T03:00:34.621Z,94.46
2023-02-21T03:03:07.514Z,94.66
2023-02-21T03:05:31.836Z,94.55
2023-02-21T03:07:44.400Z,94.89
2023-02-21T03:10:32.433Z,94.75
2023-02-21T03:12:54.430Z,94.99
2023-02-21T03:15:21.786Z,94.75
2023-02-21T03:17:40.227Z,94.90
2023-02-21T03:19:56.468Z,94.60
2023-02-21T03:22:13.730Z,94.65
2023-02-21T03:24:27.798Z,94.98
2023-02-21T03:26:43.634Z,94.87
2023-02-21T03:28:56.872Z,94.73
2023-02-21T03:31:13.264Z,94.99
2023-02-21T03:33:26.525Z,94.86
2023-02-21T03:35:39.099Z,95.15
2023-02-21T03:37:53.544Z,94.99
2023-02-21T03:40:12.602Z,95.00
2023-02-21T03:42:25.173Z,95.33
2023-02-21T03:44:37.732Z,95.33
2023-02-21T03:46:50.336Z,95.39
2023-02-21T03:49:02.968Z,95.76
2023-02-21T03:51:15.824Z,95.34
2023-02-21T03:53:28.493Z,95.90
2023-02-21T03:55:41.043Z,95.95
2023-02-21T03:57:53.628Z,96.13
2023-02-21T04:00:07.050Z,95.75
2023-02-21T04:02:20.116Z,96.15
2023-02-21T04:04:32.813Z,96.30
2023-02-21T04:06:45.388Z,96.23
2023-02-21T04:08:57.981Z,96.20
2023-02-21T04:11:10.558Z,96.23
2023-02-21T04:13:24.490Z,96.26
2023-02-21T04:15:37.100Z,96.42
2023-02-21T04:17:49.627Z,96.08
2023-02-21T04:20:02.170Z,96.34
2023-02-21T04:22:14.700Z,96.07
2023-02-21T04:24:27.323Z,95.92
2023-02-21T04:26:39.985Z,96.22
2023-02-21T04:28:52.854Z,95.87
2023-02-21T04:31:05.451Z,95.59
2023-02-21T04:33:17.956Z,95.36
2023-02-21T04:35:30.646Z,95.30
2023-02-21T04:37:45.047Z,95.22
2023-02-21T04:39:57.584Z,95.29
2023-02-21T04:42:10.149Z,95.07
2023-02-21T04:44:22.793Z,95.07
2023-02-21T04:46:35.436Z,94.90
2023-02-21T04:48:50.289Z,94.86
2023-02-21T04:51:14.711Z,95.25
2023-02-21T04:53:28.129Z,95.06
2023-02-21T04:55:40.700Z,95.73
2023-02-21T04:57:53.225Z,96.26
2023-02-21T05:00:07.406Z,96.49
2023-02-21T05:02:19.941Z,96.97
2023-02-21T05:04:32.626Z,97.61
2023-02-21T05:06:45.208Z,98.04
2023-02-21T05:08:58.656Z,98.28
2023-02-21T05:11:11.204Z,99.34
2023-02-21T05:13:23.856Z,99.77
2023-02-21T05:15:36.427Z,99.76
2023-02-21T05:17:48.977Z,99.92
2023-02-21T05:20:02.155Z,100.00
2023-02-21T05:22:20.216Z,100.00
2023-02-21T05:24:33.111Z,100.00
2023-02-21T05:26:45.567Z,100.00
2023-02-21T05:28:59.491Z,100.00
2023-02-21T05:31:12.121Z,100.00
2023-02-21T05:33:24.974Z,100.00
2023-02-21T05:35:37.488Z,100.00
2023-02-21T05:37:50.076Z,99.99
2023-02-21T05:42:37.387Z,99.63
2023-02-21T05:44:49.988Z,99.53
2023-02-21T05:47:07.078Z,99.40
2023-02-21T05:49:19.802Z,98.97
2023-02-21T05:51:50.944Z,98.87
2023-02-21T05:54:04.987Z,98.68
2023-02-21T05:56:19.528Z,98.98
2023-02-21T05:58:32.208Z,98.68
2023-02-21T06:00:45.073Z,98.68
2023-02-21T06:02:57.868Z,98.97
2023-02-21T06:05:13.057Z,99.12
2023-02-21T06:07:25.599Z,98.86
2023-02-21T06:09:38.391Z,99.23
2023-02-21T06:11:55.966Z,99.70
2023-02-21T06:14:22.397Z,99.82
2023-02-21T06:16:36.660Z,100.00
2023-02-21T06:18:54.255Z,100.00
2023-02-21T06:21:06.856Z,100.00
2023-02-21T06:23:19.390Z,100.00
2023-02-21T06:25:31.911Z,100.00
2023-02-21T06:27:44.442Z,100.00
2023-02-21T06:29:57.089Z,100.00
2023-02-21T06:32:09.677Z,100.00
2023-02-21T06:34:22.263Z,100.00
2023-02-21T06:36:35.662Z,100.00
2023-02-21T06:38:51.267Z,100.00
2023-02-21T06:41:10.014Z,100.00
2023-02-21T06:43:22.778Z,100.00
2023-02-21T06:45:35.319Z,100.00
2023-02-21T06:47:48.008Z,100.00
2023-02-21T06:50:00.570Z,100.00
2023-02-21T06:52:13.786Z,100.00
2023-02-21T06:54:26.494Z,100.00
2023-02-21T06:56:39.577Z,100.00
2023-02-21T06:58:52.182Z,100.00
2023-02-21T07:01:04.823Z,100.00
2023-02-21T07:03:17.349Z,100.00
2023-02-21T07:05:34.448Z,100.00
2023-02-21T07:07:47.062Z,100.00
2023-02-21T07:09:59.910Z,100.00
2023-02-21T07:12:12.662Z,100.00
2023-02-21T07:14:25.213Z,100.00
2023-02-21T07:16:37.791Z,100.00
2023-02-21T07:18:50.523Z,100.00
2023-02-21T07:21:03.135Z,100.00
2023-02-21T07:23:16.182Z,100.00
2023-02-21T07:25:32.865Z,100.00
2023-02-21T07:27:47.621Z,100.00
2023-02-21T07:30:00.150Z,100.00
2023-02-21T07:32:12.806Z,100.00
2023-02-21T07:34:25.360Z,100.00
2023-02-21T07:36:40.172Z,100.00
2023-02-21T07:38:52.966Z,100.00
2023-02-21T07:41:05.594Z,100.00
2023-02-21T07:43:18.100Z,100.00
2023-02-21T07:45:30.701Z,100.00
2023-02-21T07:47:47.860Z,100.00
2023-02-21T07:50:00.736Z,100.00
2023-02-21T07:52:13.341Z,100.00
2023-02-21T07:54:25.912Z,100.00
2023-02-21T07:56:46.367Z,100.00
2023-02-21T07:58:58.919Z,100.00
2023-02-21T08:01:11.519Z,100.00
2023-02-21T08:03:24.088Z,100.00
2023-02-21T08:05:36.748Z,100.00
2023-02-21T08:07:49.300Z,100.00
2023-02-21T08:10:01.913Z,100.00
2023-02-21T08:12:14.421Z,100.00
2023-02-21T08:14:27.151Z,100.00
2023-02-21T08:16:39.778Z,100.00
2023-02-21T08:18:52.559Z,100.00
2023-02-21T08:21:08.954Z,100.00
2023-02-21T08:23:22.180Z,100.00
2023-02-21T08:25:34.703Z,100.00
2023-02-21T08:27:53.365Z,100.00
2023-02-21T08:30:06.792Z,100.00
2023-02-21T08:32:20.270Z,100.00
2023-02-21T08:34:32.896Z,100.00
2023-02-21T08:36:45.438Z,100.00
2023-02-21T08:38:57.960Z,100.00
2023-02-21T08:41:10.668Z,100.00
2023-02-21T08:43:24.190Z,100.00
2023-02-21T08:45:36.762Z,100.00
2023-02-21T08:47:50.412Z,100.00
2023-02-21T08:50:03.588Z,99.89
2023-02-21T08:52:17.820Z,99.71
2023-02-21T08:54:30.694Z,99.59
2023-02-21T08:56:43.265Z,99.93
2023-02-21T08:58:55.898Z,100.00
2023-02-21T09:01:08.508Z,100.00
2023-02-21T09:03:21.045Z,100.00
2023-02-21T09:05:33.574Z,100.00
2023-02-21T09:07:50.188Z,100.00
2023-02-21T09:10:03.540Z,100.00
2023-02-21T09:12:16.179Z,100.00
2023-02-21T09:14:28.676Z,100.00
2023-02-21T09:16:42.828Z,100.00
2023-02-21T09:18:59.071Z,100.00
2023-02-21T09:21:11.826Z,100.00
2023-02-21T09:23:26.490Z,99.48
2023-02-21T09:25:39.061Z,98.88
2023-02-21T09:27:54.394Z,98.46
2023-02-21T09:30:15.193Z,98.18
2023-02-21T09:32:28.809Z,97.01
2023-02-21T09:34:41.682Z,96.26
2023-02-21T09:36:57.454Z,94.39
2023-02-21T09:39:11.095Z,93.43
2023-02-21T09:41:23.733Z,91.96
2023-02-21T09:43:39.335Z,91.87
2023-02-21T09:45:54.950Z,91.38
2023-02-21T09:48:19.779Z,89.91
2023-02-21T09:50:39.811Z,88.65
2023-02-21T09:52:52.408Z,88.08
2023-02-21T09:55:20.762Z,86.20
2023-02-21T09:57:33.315Z,86.39
2023-02-21T09:59:46.283Z,85.66
2023-02-21T10:02:10.748Z,84.09
2023-02-21T10:04:38.231Z,82.50
2023-02-21T10:06:57.475Z,81.42
2023-02-21T10:09:38.384Z,81.65
2023-02-21T10:12:17.936Z,80.84
2023-02-21T10:14:41.941Z,79.97
2023-02-21T10:17:16.973Z,78.71
2023-02-21T10:19:36.174Z,79.25
2023-02-21T10:21:49.638Z,77.54
2023-02-21T10:24:10.502Z,76.91
2023-02-21T10:26:31.027Z,77.96
2023-02-21T10:28:44.092Z,77.71
2023-02-21T10:31:03.282Z,78.27
2023-02-21T10:33:16.339Z,78.96
2023-02-21T10:35:28.887Z,78.90
2023-02-21T10:37:46.917Z,78.99
2023-02-21T10:40:08.113Z,79.46
2023-02-21T10:42:34.410Z,79.66
2023-02-21T10:44:47.117Z,80.58
2023-02-21T10:47:06.802Z,82.38
2023-02-21T10:49:29.291Z,84.56
2023-02-21T10:51:41.906Z,85.79
2023-02-21T10:53:54.470Z,87.94
2023-02-21T10:56:18.284Z,89.13
2023-02-21T10:58:30.889Z,90.56
2023-02-21T11:00:48.653Z,91.41
2023-02-21T11:03:14.414Z,92.43
2023-02-21T11:05:27.287Z,93.28
2023-02-21T11:07:41.752Z,93.91
2023-02-21T11:09:55.716Z,94.72
2023-02-21T11:12:22.195Z,94.52
2023-02-21T11:14:35.160Z,95.23
2023-02-21T11:17:15.508Z,94.61
2023-02-21T11:19:28.136Z,93.80
2023-02-21T11:21:45.048Z,93.20
2023-02-21T11:24:04.622Z,92.95
2023-02-21T11:26:17.265Z,90.43
2023-02-21T11:28:29.925Z,89.94
2023-02-21T11:30:51.099Z,89.12
2023-02-21T11:33:05.996Z,87.07
2023-02-21T11:35:30.791Z,85.90
2023-02-21T11:37:49.585Z,85.07
2023-02-21T11:40:02.684Z,84.56
2023-02-21T11:42:30.924Z,85.29
2023-02-21T11:44:43.621Z,85.24
2023-02-21T11:47:23.122Z,84.90
2023-02-21T11:50:01.677Z,85.05
2023-02-21T11:52:19.495Z,85.48
2023-02-21T11:54:32.598Z,85.78
2023-02-21T11:57:02.260Z,86.91
2023-02-21T11:59:33.220Z,88.19
2023-02-21T12:02:17.878Z,89.06
2023-02-21T12:04:40.325Z,90.12
2023-02-21T12:07:15.352Z,89.57
2023-02-21T12:09:47.482Z,89.86
2023-02-21T12:12:23.259Z,88.82
2023-02-21T12:14:38.605Z,88.20
2023-02-21T12:17:15.074Z,87.75
2023-02-21T12:19:36.937Z,87.54
2023-02-21T12:22:12.076Z,87.27
2023-02-21T12:24:40.694Z,86.74
2023-02-21T12:27:11.687Z,86.43
2023-02-21T12:29:41.187Z,85.04
2023-02-21T12:32:12.741Z,85.52
2023-02-21T12:34:34.473Z,84.83
2023-02-21T12:36:56.069Z,84.57
2023-02-21T12:39:36.073Z,83.84
2023-02-21T12:42:21.339Z,82.99
2023-02-21T12:44:42.030Z,81.50
2023-02-21T12:47:37.328Z,81.09
2023-02-21T12:50:01.682Z,80.89
2023-02-21T12:52:16.137Z,80.34
2023-02-21T12:54:40.993Z,80.11
2023-02-21T12:57:04.959Z,80.30
2023-02-21T12:59:27.257Z,79.86
2023-02-21T13:01:46.338Z,79.43
2023-02-21T13:04:20.923Z,79.11
2023-02-21T13:06:39.242Z,78.76
2023-02-21T13:09:29.454Z,78.93
2023-02-21T13:12:15.952Z,78.57
2023-02-21T13:14:41.415Z,77.80
2023-02-21T13:16:54.165Z,77.31
2023-02-21T13:19:11.364Z,76.89
2023-02-21T13:21:54.746Z,76.20
2023-02-21T13:24:30.956Z,75.47
2023-02-21T13:27:08.423Z,75.32
2023-02-21T13:29:28.307Z,75.06
2023-02-21T13:31:43.312Z,74.44
2023-02-21T13:33:59.781Z,73.71
2023-02-21T13:36:29.531Z,71.58
2023-02-21T13:38:43.243Z,70.89
2023-02-21T13:41:16.796Z,71.15
2023-02-21T13:43:33.139Z,71.62
2023-02-21T13:45:45.660Z,70.94
2023-02-21T13:47:58.371Z,70.99
2023-02-21T13:50:39.201Z,71.50
2023-02-21T13:53:02.990Z,71.21
2023-02-21T13:55:15.827Z,71.02
2023-02-21T13:57:33.179Z,70.62
2023-02-21T13:59:45.769Z,70.59
2023-02-21T14:02:32.783Z,69.11
2023-02-21T14:04:57.669Z,69.05
2023-02-21T14:07:10.340Z,69.37
2023-02-21T14:09:23.029Z,69.81
2023-02-21T14:11:44.291Z,70.13
2023-02-21T14:14:04.196Z,70.33
2023-02-21T14:16:46.105Z,69.58
2023-02-21T14:19:11.056Z,70.40
2023-02-21T14:21:35.615Z,70.93
2023-02-21T14:24:13.167Z,71.47
2023-02-21T14:26:52.057Z,71.73
2023-02-21T14:29:07.382Z,72.34
2023-02-21T14:31:49.720Z,72.69
2023-02-21T14:34:03.637Z,73.05
2023-02-21T14:36:18.674Z,73.60
2023-02-21T14:38:39.068Z,73.63
2023-02-21T14:40:58.919Z,73.74
2023-02-21T14:44:00.037Z,73.89
2023-02-21T14:46:34.590Z,74.35
2023-02-21T14:49:37.250Z,74.56
2023-02-21T14:52:05.675Z,74.07
2023-02-21T14:54:58.555Z,73.80
2023-02-21T14:57:41.091Z,73.43
2023-02-21T15:00:18.960Z,73.16
2023-02-21T15:02:52.021Z,73.03
2023-02-21T15:05:26.494Z,72.69
2023-02-21T15:07:56.054Z,72.27
2023-02-21T15:10:15.001Z,72.24
2023-02-21T15:12:27.929Z,72.23
2023-02-21T15:14:47.714Z,72.19
2023-02-21T15:17:12.080Z,71.99
2023-02-21T15:19:30.328Z,72.25
2023-02-21T15:21:42.868Z,72.47
2023-02-21T15:24:12.808Z,72.64
2023-02-21T15:26:30.104Z,72.72
2023-02-21T15:28:42.765Z,73.03
2023-02-21T15:31:00.266Z,72.92
2023-02-21T15:33:19.464Z,73.02
2023-02-21T15:35:36.470Z,73.28
2023-02-21T15:37:49.152Z,73.08
2023-02-21T15:40:12.102Z,73.20
2023-02-21T15:42:27.560Z,73.44
2023-02-21T15:44:55.376Z,73.33
2023-02-21T15:47:12.758Z,73.33
2023-02-21T15:49:31.727Z,72.88
2023-02-21T15:51:44.658Z,72.70
2023-02-21T15:54:38.307Z,72.83
2023-02-21T15:57:24.902Z,72.51
2023-02-21T15:59:39.040Z,72.49
2023-02-21T16:02:22.508Z,72.39
2023-02-21T16:04:37.258Z,72.89
2023-02-21T16:06:57.707Z,72.98
2023-02-21T16:09:17.011Z,73.28
2023-02-21T16:11:48.137Z,73.27
2023-02-21T16:14:02.461Z,73.61
2023-02-21T16:16:16.370Z,73.81
2023-02-21T16:18:29.113Z,74.09
2023-02-21T16:20:43.599Z,74.15
2023-02-21T16:23:23.180Z,74.24
2023-02-21T16:25:35.900Z,74.11
2023-02-21T16:27:58.025Z,74.15
2023-02-21T16:30:17.098Z,74.00
2023-02-21T16:32:29.745Z,73.91
2023-02-21T16:34:42.559Z,73.73
2023-02-21T16:37:01.920Z,73.80
2023-02-21T16:39:14.426Z,73.72
2023-02-21T16:41:27.520Z,73.72
2023-02-21T16:43:40.102Z,74.36
2023-02-21T16:45:55.753Z,74.52
2023-02-21T16:48:16.442Z,75.02
2023-02-21T16:50:34.927Z,75.49
2023-02-21T16:52:47.594Z,75.35
2023-02-21T16:55:00.184Z,76.23
2023-02-21T16:57:12.880Z,76.64
2023-02-21T16:59:25.509Z,77.14
2023-02-21T17:01:39.052Z,77.41
2023-02-21T17:03:53.812Z,77.63
2023-02-21T17:06:07.026Z,78.06
2023-02-21T17:08:19.785Z,78.28
2023-02-21T17:10:32.807Z,78.81
2023-02-21T17:12:45.388Z,79.00
2023-02-21T17:14:57.932Z,79.18
2023-02-21T17:17:10.478Z,79.57
2023-02-21T17:19:25.396Z,79.72
2023-02-21T17:21:38.484Z,80.12
2023-02-21T17:23:50.991Z,80.35
2023-02-21T17:26:04.224Z,80.45
2023-02-21T17:28:17.087Z,81.00
2023-02-21T17:30:31.276Z,80.76
2023-02-21T17:32:46.885Z,81.63
2023-02-21T17:34:59.788Z,81.41
2023-02-21T17:37:12.388Z,81.89
2023-02-21T17:39:25.717Z,81.96
2023-02-21T17:41:45.574Z,82.37
2023-02-21T17:43:58.191Z,82.91
2023-02-21T17:46:11.857Z,83.26
2023-02-21T17:48:24.409Z,83.73
2023-02-21T17:50:37.164Z,84.15
2023-02-21T17:52:51.474Z,84.37
2023-02-21T17:55:07.890Z,84.71
2023-02-21T17:57:21.776Z,84.71
2023-02-21T17:59:35.555Z,84.82
2023-02-21T18:01:48.223Z,85.19
2023-02-21T18:04:03.570Z,85.53
2023-02-21T18:06:16.758Z,85.72
2023-02-21T18:08:29.329Z,86.02
2023-02-21T18:10:46.079Z,86.19
2023-02-21T18:12:58.644Z,86.57
2023-02-21T18:15:11.366Z,86.68
2023-02-21T18:17:23.879Z,87.12
2023-02-21T18:19:36.732Z,87.15
2023-02-21T18:21:49.483Z,87.30
2023-02-21T18:24:02.277Z,87.63
2023-02-21T18:26:15.752Z,87.75
2023-02-21T18:28:29.673Z,88.05
2023-02-21T18:30:42.273Z,88.09
2023-02-21T18:32:55.273Z,88.22
2023-02-21T18:35:08.021Z,88.56
2023-02-21T18:37:20.577Z,88.75
2023-02-21T18:39:33.346Z,88.64
2023-02-21T18:41:46.172Z,88.71
2023-02-21T18:43:58.758Z,88.96
2023-02-21T18:46:14.441Z,89.07
2023-02-21T18:48:27.349Z,89.00
2023-02-21T18:50:40.030Z,88.99
2023-02-21T18:52:52.571Z,89.19
2023-02-21T18:55:06.088Z,89.21
2023-02-21T18:57:21.602Z,88.93
2023-02-21T18:59:34.828Z,89.14
2023-02-21T19:01:49.306Z,89.16
2023-02-21T19:04:03.555Z,89.02
2023-02-21T19:06:18.301Z,89.17
2023-02-21T19:08:30.783Z,89.11
2023-02-21T19:10:43.381Z,88.97
2023-02-21T19:12:59.389Z,88.75
2023-02-21T19:15:12.123Z,88.20
2023-02-21T19:17:24.887Z,87.73
2023-02-21T19:19:37.795Z,87.48
2023-02-21T19:21:50.368Z,87.08
2023-02-21T19:24:04.186Z,86.55
2023-02-21T19:26:17.489Z,86.11
2023-02-21T19:28:30.050Z,85.63
2023-02-21T19:30:42.918Z,85.18
2023-02-21T19:33:01.868Z,84.97
2023-02-21T19:35:14.385Z,84.63
2023-02-21T19:37:26.945Z,84.14
2023-02-21T19:39:39.546Z,84.02
2023-02-21T19:41:52.068Z,83.47
2023-02-21T19:44:05.354Z,83.05
2023-02-21T19:46:26.529Z,82.71
2023-02-21T19:48:39.064Z,82.16
2023-02-21T19:50:52.021Z,81.84
2023-02-21T19:53:04.785Z,81.35
2023-02-21T19:55:17.360Z,80.96
2023-02-21T19:57:30.001Z,80.79
2023-02-21T19:59:42.828Z,80.54
2023-02-21T20:01:56.186Z,80.21
2023-02-21T20:04:09.183Z,79.95
2023-02-21T20:06:24.849Z,79.66
2023-02-21T20:08:37.434Z,79.47
2023-02-21T20:10:50.037Z,79.17
2023-02-21T20:13:06.570Z,79.01
2023-02-21T20:15:19.391Z,78.90
2023-02-21T20:17:35.177Z,78.91
2023-02-21T20:19:47.718Z,78.70
2023-02-21T20:22:00.438Z,78.50
2023-02-21T20:24:13.220Z,78.38
2023-02-21T20:26:26.546Z,78.20
2023-02-21T20:28:39.579Z,77.92
2023-02-21T20:30:52.315Z,77.97
2023-02-21T20:33:06.768Z,77.88
2023-02-21T20:35:19.402Z,77.87
2023-02-21T20:37:32.595Z,77.58
2023-02-21T20:39:45.280Z,77.51
2023-02-21T20:42:00.952Z,77.42
2023-02-21T20:44:14.613Z,77.22
2023-02-21T20:46:28.973Z,77.16
2023-02-21T20:48:41.775Z,76.97
2023-02-21T20:50:54.296Z,76.69
2023-02-21T20:53:07.155Z,76.65
2023-02-21T20:55:22.200Z,76.59
2023-02-21T20:57:35.167Z,76.51
2023-02-21T20:59:47.888Z,76.44
2023-02-21T21:02:01.555Z,76.31
2023-02-21T21:04:17.491Z,76.38
2023-02-21T21:06:30.404Z,76.38
2023-02-21T21:08:42.986Z,76.35
2023-02-21T21:10:55.639Z,76.28
2023-02-21T21:13:08.340Z,76.39
2023-02-21T21:15:21.710Z,76.52
2023-02-21T21:17:35.585Z,76.63
2023-02-21T21:19:49.269Z,76.80
2023-02-21T21:22:05.060Z,76.68
2023-02-21T21:24:17.760Z,76.82
2023-02-21T21:26:30.337Z,76.70
2023-02-21T21:28:43.361Z,76.91
2023-02-21T21:30:55.972Z,76.84
2023-02-21T21:33:08.556Z,76.98
2023-02-21T21:35:21.196Z,77.04
2023-02-21T21:37:35.119Z,77.13
2023-02-21T21:39:54.810Z,77.26
2023-02-21T21:42:09.536Z,77.33
2023-02-21T21:44:23.372Z,77.46
2023-02-21T21:46:37.942Z,77.54
2023-02-21T21:48:50.528Z,77.60
2023-02-21T21:51:03.713Z,77.77
2023-02-21T21:53:16.739Z,77.90
2023-02-21T21:55:30.172Z,77.93
2023-02-21T21:57:42.806Z,78.14
2023-02-21T21:59:55.473Z,78.18
2023-02-21T22:02:10.242Z,78.24
2023-02-21T22:04:23.967Z,78.35
2023-02-21T22:06:37.553Z,78.41
2023-02-21T22:08:50.107Z,78.58
2023-02-21T22:11:02.682Z,78.73
2023-02-21T22:13:19.919Z,78.68
2023-02-21T22:15:33.544Z,78.92
2023-02-21T22:17:46.666Z,78.91
2023-02-21T22:19:59.256Z,79.09
2023-02-21T22:22:13.665Z,79.13
2023-02-21T22:24:26.265Z,79.29
2023-02-21T22:26:39.698Z,79.34
2023-02-21T22:28:52.763Z,79.37
2023-02-21T22:31:08.682Z,79.30
2023-02-21T22:33:22.488Z,79.49
2023-02-21T22:35:35.187Z,79.58
2023-02-21T22:37:52.689Z,79.70
2023-02-21T22:40:05.555Z,79.82
2023-02-21T22:42:18.475Z,79.93
2023-02-21T22:44:30.984Z,80.05
2023-02-21T22:46:46.806Z,80.28
2023-02-21T22:48:59.432Z,80.42
2023-02-21T22:51:15.169Z,80.44
2023-02-21T22:53:27.974Z,80.65
2023-02-21T22:55:40.488Z,80.75
2023-02-21T22:57:55.305Z,80.95
2023-02-21T23:00:19.104Z,81.02
2023-02-21T23:02:31.824Z,81.20
2023-02-21T23:04:46.589Z,81.20
2023-02-21T23:07:00.281Z,81.24
2023-02-21T23:09:14.276Z,81.45
2023-02-21T23:11:26.894Z,81.50
2023-02-21T23:13:39.518Z,81.75
2023-02-21T23:15:55.904Z,82.03
2023-02-21T23:18:13.136Z,82.16
2023-02-21T23:20:29.647Z,82.17
2023-02-21T23:22:48.655Z,82.37
2023-02-21T23:25:02.019Z,82.64
2023-02-21T23:27:14.763Z,82.76
2023-02-21T23:29:27.472Z,83.16
2023-02-21T23:31:41.049Z,83.28
2023-02-21T23:33:53.801Z,83.57
2023-02-21T23:36:07.473Z,83.66
2023-02-21T23:38:23.004Z,83.79
2023-02-21T23:40:39.242Z,84.07
2023-02-21T23:42:56.924Z,84.45
2023-02-21T23:45:11.256Z,84.30
2023-02-21T23:47:23.995Z,84.65
2023-02-21T23:49:43.994Z,84.84
2023-02-21T23:51:56.650Z,85.12
2023-02-21T23:54:09.984Z,85.37
2023-02-21T23:56:22.884Z,85.62
2023-02-21T23:58:35.527Z,85.91
